createdAt,value
2023-03-30T00:01:32.144Z,15.31
2023-03-30T00:11:37.979Z,15.17
2023-03-30T00:21:41.382Z,15.12
2023-03-30T00:31:45.705Z,15.09
2023-03-30T00:41:48.760Z,14.94
2023-03-30T00:51:53.342Z,14.85
2023-03-30T01:01:56.901Z,14.86
2023-03-30T01:12:01.805Z,14.87
2023-03-30T01:22:27.962Z,15.05
2023-03-30T01:33:01.358Z,15.22
2023-03-30T01:43:13.199Z,15.46
2023-03-30T01:53:19.481Z,15.50
2023-03-30T02:03:28.637Z,15.77
2023-03-30T02:13:33.760Z,15.93
2023-03-30T02:23:42.166Z,15.86
2023-03-30T02:33:49.300Z,15.86
2023-03-30T02:44:04.083Z,15.74
2023-03-30T02:54:18.054Z,15.57
2023-03-30T03:04:51.113Z,15.53
2023-03-30T03:15:03.660Z,15.32
2023-03-30T03:25:12.006Z,15.32
2023-03-30T03:35:30.153Z,15.18
2023-03-30T03:45:37.092Z,15.12
2023-03-30T03:55:41.707Z,15.14
2023-03-30T04:05:46.375Z,15.10
2023-03-30T04:15:49.664Z,15.04
2023-03-30T04:26:08.006Z,15.04
2023-03-30T04:36:43.437Z,15.03
2023-03-30T04:47:11.101Z,15.10
2023-03-30T04:57:40.794Z,15.08
2023-03-30T05:08:05.779Z,15.10
2023-03-30T05:18:26.462Z,15.06
2023-03-30T05:28:32.594Z,15.06
2023-03-30T05:38:50.631Z,15.02
2023-03-30T05:49:15.531Z,15.06
2023-03-30T05:59:39.420Z,15.12
2023-03-30T06:10:04.784Z,15.10
2023-03-30T06:20:12.798Z,15.13
2023-03-30T06:30:22.397Z,15.06
2023-03-30T06:40:29.443Z,15.20
2023-03-30T06:50:36.928Z,15.30
2023-03-30T07:00:49.639Z,15.29
2023-03-30T07:11:17.001Z,15.19
2023-03-30T07:21:20.773Z,15.21
2023-03-30T07:31:26.374Z,15.37
2023-03-30T07:41:30.082Z,15.83
2023-03-30T07:51:37.049Z,15.73
2023-03-30T08:01:50.501Z,15.91
2023-03-30T08:12:16.084Z,16.52
2023-03-30T08:22:19.329Z,16.20
2023-03-30T08:32:24.587Z,16.19
2023-03-30T08:42:43.700Z,16.22
2023-03-30T08:52:48.628Z,16.22
2023-03-30T09:02:56.839Z,16.52
2023-03-30T09:13:04.017Z,16.32
2023-03-30T09:23:12.486Z,16.42
2023-03-30T09:33:28.037Z,16.24
2023-03-30T09:43:35.177Z,16.24
2023-03-30T09:53:42.355Z,16.51
2023-03-30T10:03:47.733Z,13.94
2023-03-30T10:13:52.506Z,12.31
2023-03-30T10:24:08.900Z,11.97
2023-03-30T10:34:19.324Z,12.30
2023-03-30T10:44:26.175Z,12.52
2023-03-30T10:54:38.052Z,12.97
2023-03-30T11:04:44.439Z,13.95
2023-03-30T11:14:54.035Z,14.57
2023-03-30T11:24:58.171Z,14.55
2023-03-30T11:35:10.762Z,14.29
2023-03-30T11:45:43.576Z,13.55
2023-03-30T11:56:03.225Z,13.89
2023-03-30T12:06:21.835Z,14.60
2023-03-30T12:16:30.381Z,14.50
2023-03-30T12:26:35.276Z,15.97
2023-03-30T12:36:41.595Z,16.42
2023-03-30T12:46:58.517Z,15.75
2023-03-30T12:57:13.225Z,17.87
2023-03-30T13:07:22.839Z,17.28
2023-03-30T13:17:28.069Z,16.89
2023-03-30T13:27:34.613Z,17.03
2023-03-30T13:37:56.076Z,16.30
2023-03-30T13:48:10.655Z,16.21
2023-03-30T13:58:18.952Z,16.03
2023-03-30T14:08:22.398Z,16.49
2023-03-30T14:18:27.733Z,15.87
2023-03-30T14:28:35.177Z,16.38
2023-03-30T14:38:42.150Z,16.53
2023-03-30T14:48:50.648Z,16.74
2023-03-30T14:58:56.956Z,16.53
2023-03-30T15:09:04.774Z,16.31
2023-03-30T15:19:13.246Z,16.45
2023-03-30T15:29:19.311Z,16.46
2023-03-30T15:39:25.683Z,16.22
2023-03-30T15:49:37.252Z,15.89
2023-03-30T15:59:47.079Z,15.92
2023-03-30T16:09:50.046Z,15.88
2023-03-30T16:19:54.731Z,15.74
2023-03-30T16:29:58.576Z,15.62
2023-03-30T16:40:04.445Z,15.93
2023-03-30T16:50:19.629Z,15.84
2023-03-30T17:00:27.275Z,15.84
2023-03-30T17:10:56.040Z,15.61
2023-03-30T17:21:03.040Z,15.46
2023-03-30T17:31:11.142Z,15.46
2023-03-30T17:41:19.621Z,15.26
2023-03-30T17:51:23.005Z,14.93
2023-03-30T18:01:27.692Z,14.84
2023-03-30T18:11:30.984Z,14.65
2023-03-30T18:21:35.987Z,14.39
2023-03-30T18:31:40.369Z,14.26
2023-03-30T18:41:44.927Z,14.30
2023-03-30T18:51:48.051Z,14.24
2023-03-30T19:01:52.580Z,14.33
2023-03-30T19:11:57.275Z,14.41
2023-03-30T19:22:01.792Z,14.19
2023-03-30T19:32:05.645Z,14.08
2023-03-30T19:42:10.088Z,14.14
2023-03-30T19:52:13.110Z,14.32
2023-03-30T20:02:17.869Z,14.27
2023-03-30T20:12:21.403Z,14.12
2023-03-30T20:22:25.910Z,14.00
2023-03-30T20:32:29.039Z,14.01
2023-03-30T20:42:33.243Z,13.70
2023-03-30T20:52:36.046Z,13.81
2023-03-30T21:02:40.548Z,13.59
2023-03-30T21:12:43.621Z,13.55
2023-03-30T21:22:48.418Z,13.54
2023-03-30T21:32:51.671Z,13.51
2023-03-30T21:42:55.992Z,13.57
2023-03-30T21:52:59.544Z,13.45
2023-03-30T22:03:04.000Z,13.39
2023-03-30T22:13:07.420Z,13.24
2023-03-30T22:23:11.696Z,13.29
2023-03-30T22:33:15.895Z,13.14
2023-03-30T22:55:27.849Z,13.07
2023-03-30T23:05:33.623Z,13.16
2023-03-30T23:15:56.918Z,13.19
2023-03-30T23:26:03.030Z,13.17
2023-03-30T23:36:09.253Z,13.10
2023-03-30T23:46:13.357Z,12.98
2023-03-30T23:56:18.110Z,12.60
